Reliance, Wyoming
Current Conditions -  °F | °C
As of 6:54 PM on Saturday 20 Dec 2014 (Local Time) from KRKS Reporting Station
Overcast Overcast  
Wind Chill: 19°   Ceiling: 5500
Heat Index: 30°   Visibility: 10mi
Dew Point: 27°   Wind: 16mph
Humidity: 88%   Direction: 240°WSW
Pressure: 29.99"   Gusts: NA
Location:  41.67°N, 109.2°W
Report Text: KRKS 210154Z AUTO 24014KT 10SM FEW015 OVC055 M01/M03 A2999 RMK AO2 SLP179 T10111028
Loading
Personal Weather Stations






























Interactive Weather Map New forecast layout! Learn more

10-Day Weather Forecast

Advertisements
Track Severe Weather on mobile